Time;durP1;ratioP1;P1;durP2;ratioP2;P2;SDS_P1;SDS_P2;PMS_P1;PMS_P2;Temp;Humidity;BMP_temperature;BMP_pressure;BME280_temperature;BME280_humidity;BME280_pressure;Samples;Min_cycle;Max_cycle;Signal;HPM_P1;HPM_P2
2023/08/22 00:02:12;;;;;;;3.87;3.50;;;24.00;73.70;;;;;;963574;145;27404;-76
2023/08/22 00:04:39;;;;;;;4.30;3.95;;;23.90;73.90;;;;;;964248;146;27363;-76
2023/08/22 00:07:05;;;;;;;4.17;3.85;;;23.90;74.20;;;;;;964174;145;27314;-76
2023/08/22 00:09:32;;;;;;;4.12;3.80;;;23.80;74.40;;;;;;963853;145;27446;-76
2023/08/22 00:11:58;;;;;;;4.08;3.75;;;23.80;74.60;;;;;;963907;146;28833;-76
2023/08/22 00:14:25;;;;;;;4.83;4.30;;;23.80;74.80;;;;;;962352;145;27698;-76
2023/08/22 00:16:52;;;;;;;5.92;3.72;;;23.80;75.10;;;;;;963596;145;27282;-76
2023/08/22 00:19:18;;;;;;;5.53;4.00;;;23.80;75.40;;;;;;963155;145;27318;-76
2023/08/22 00:21:45;;;;;;;4.05;3.75;;;23.80;75.80;;;;;;961714;145;28359;-76
2023/08/22 00:24:11;;;;;;;4.12;3.83;;;23.80;76.10;;;;;;963753;146;27304;-76
2023/08/22 00:26:38;;;;;;;4.10;3.80;;;23.70;76.30;;;;;;964332;145;27315;-76
2023/08/22 00:29:04;;;;;;;4.25;3.72;;;23.70;76.60;;;;;;963529;146;27294;-76
2023/08/22 00:31:31;;;;;;;4.35;3.95;;;23.70;76.80;;;;;;962471;145;27393;-76
2023/08/22 00:34:01;;;;;;;4.65;3.47;;;23.70;77.20;;;;;;955432;147;27419;-76
2023/08/22 00:36:24;;;;;;;6.47;4.17;;;23.70;77.50;;;;;;950795;147;27331;-76
2023/08/22 00:38:51;;;;;;;3.92;3.62;;;23.70;77.90;;;;;;950942;147;27476;-76
2023/08/22 00:41:17;;;;;;;4.62;4.22;;;23.60;78.20;;;;;;950288;147;27360;-76
2023/08/22 00:43:44;;;;;;;4.67;4.33;;;23.60;78.60;;;;;;951428;147;27345;-76
2023/08/22 00:46:11;;;;;;;4.67;4.30;;;23.60;78.80;;;;;;949030;147;27334;-76
2023/08/22 00:48:37;;;;;;;4.55;4.15;;;23.60;79.10;;;;;;950988;147;27298;-76
2023/08/22 00:51:04;;;;;;;4.60;4.20;;;23.60;79.30;;;;;;950928;147;27381;-76
2023/08/22 00:53:30;;;;;;;3.85;3.55;;;23.50;79.70;;;;;;950427;147;27423;-76
2023/08/22 00:55:57;;;;;;;4.47;4.08;;;23.50;80.30;;;;;;950304;148;27338;-76
2023/08/22 00:58:24;;;;;;;3.85;3.55;;;23.50;80.70;;;;;;950858;147;28584;-76
2023/08/22 01:00:50;;;;;;;4.05;3.65;;;23.50;81.10;;;;;;950548;147;27390;-76
2023/08/22 01:03:17;;;;;;;4.12;3.77;;;23.40;81.40;;;;;;950800;147;27883;-76
2023/08/22 01:05:43;;;;;;;4.08;3.77;;;23.40;81.90;;;;;;950524;147;27436;-76
2023/08/22 01:08:16;;;;;;;4.05;3.77;;;23.40;82.30;;;;;;950016;147;27796;-76
2023/08/22 01:10:46;;;;;;;4.10;3.80;;;23.40;82.70;;;;;;949455;147;27439;-76
2023/08/22 01:13:12;;;;;;;4.37;4.08;;;23.30;83.00;;;;;;949892;147;27306;-76
2023/08/22 01:15:38;;;;;;;3.95;3.65;;;23.30;83.50;;;;;;933624;150;27545;-76
2023/08/22 01:18:05;;;;;;;4.70;4.28;;;23.20;84.10;;;;;;927248;150;27354;-76
2023/08/22 01:20:32;;;;;;;4.62;4.30;;;23.20;84.70;;;;;;935146;151;27345;-76
2023/08/22 01:22:58;;;;;;;4.50;4.17;;;23.10;85.30;;;;;;934838;149;27328;-76
2023/08/22 01:25:25;;;;;;;3.87;3.65;;;23.10;86.10;;;;;;951634;147;27339;-76
2023/08/22 01:28:20;;;;;;;4.33;4.03;;;23.00;86.60;;;;;;949923;147;27344;-76
2023/08/22 01:31:04;;;;;;;4.47;4.17;;;23.00;87.30;;;;;;951100;149;27346;-76
2023/08/22 01:33:33;;;;;;;4.65;4.25;;;23.00;87.70;;;;;;950467;147;27285;-76
2023/08/22 01:35:59;;;;;;;4.50;4.17;;;22.90;88.60;;;;;;934256;150;27375;-76
2023/08/22 01:38:28;;;;;;;4.22;3.85;;;22.80;89.70;;;;;;935100;149;27470;-76
2023/08/22 01:40:55;;;;;;;7.75;4.22;;;22.80;90.20;;;;;;950332;147;27321;-76
2023/08/22 01:43:21;;;;;;;4.47;4.08;;;22.80;90.70;;;;;;950802;147;27328;-76
2023/08/22 01:45:48;;;;;;;5.25;4.65;;;22.80;91.00;;;;;;950672;147;27377;-76
2023/08/22 01:48:15;;;;;;;4.62;4.33;;;22.70;91.30;;;;;;951031;147;27348;-76
2023/08/22 01:50:41;;;;;;;4.45;4.05;;;22.70;91.70;;;;;;950766;147;27316;-76
2023/08/22 01:53:08;;;;;;;4.78;4.37;;;22.70;92.20;;;;;;950700;147;27313;-76
2023/08/22 01:55:34;;;;;;;4.65;4.15;;;22.60;92.40;;;;;;951258;147;27308;-76
2023/08/22 01:58:03;;;;;;;4.72;4.17;;;22.60;92.80;;;;;;950251;147;27479;-76
2023/08/22 02:00:27;;;;;;;4.45;4.15;;;22.60;93.30;;;;;;950321;147;27437;-76
2023/08/22 02:02:54;;;;;;;4.53;4.12;;;22.50;93.60;;;;;;950650;147;27253;-76
2023/08/22 02:05:21;;;;;;;5.10;4.70;;;22.50;94.00;;;;;;952114;147;27422;-76
2023/08/22 02:07:47;;;;;;;4.15;3.85;;;22.40;94.40;;;;;;950690;148;27335;-76
2023/08/22 02:10:14;;;;;;;4.30;3.90;;;22.30;94.70;;;;;;950391;147;27451;-76
2023/08/22 02:12:40;;;;;;;4.78;4.20;;;22.30;95.10;;;;;;950765;147;27332;-76
2023/08/22 02:15:07;;;;;;;4.40;4.00;;;22.30;95.50;;;;;;951011;147;27337;-76
2023/08/22 02:17:34;;;;;;;4.30;4.00;;;22.20;95.90;;;;;;951152;147;27339;-76
2023/08/22 02:20:00;;;;;;;4.33;3.98;;;22.20;96.40;;;;;;951412;147;27337;-76
2023/08/22 02:22:27;;;;;;;4.45;4.05;;;22.20;96.80;;;;;;951868;147;27401;-76
2023/08/22 02:24:53;;;;;;;4.45;4.05;;;22.20;97.10;;;;;;951354;147;27300;-76
2023/08/22 02:27:20;;;;;;;4.42;4.08;;;22.10;97.50;;;;;;950589;147;27376;-76
2023/08/22 02:29:47;;;;;;;4.33;4.03;;;22.10;97.90;;;;;;950071;147;27822;-76
2023/08/22 02:32:13;;;;;;;4.92;4.55;;;22.00;98.20;;;;;;950953;147;27348;-76
2023/08/22 02:34:40;;;;;;;4.75;4.33;;;22.00;98.50;;;;;;950994;147;27458;-76
2023/08/22 02:37:07;;;;;;;6.08;4.50;;;22.00;98.80;;;;;;950620;147;27359;-76
2023/08/22 02:39:33;;;;;;;4.55;4.25;;;22.00;99.20;;;;;;950277;147;27690;-76
2023/08/22 02:41:59;;;;;;;5.62;4.00;;;22.00;99.40;;;;;;952049;147;27343;-76
2023/08/22 02:44:26;;;;;;;4.72;4.33;;;21.90;99.60;;;;;;951481;147;27254;-76
2023/08/22 02:46:53;;;;;;;5.72;4.22;;;21.90;99.80;;;;;;950851;147;27299;-76
2023/08/22 02:49:19;;;;;;;5.33;4.92;;;21.90;99.90;;;;;;950554;147;27426;-76
2023/08/22 02:51:46;;;;;;;4.80;4.35;;;21.90;99.90;;;;;;950871;147;27417;-76
2023/08/22 02:54:12;;;;;;;4.78;4.37;;;21.80;99.90;;;;;;951036;147;27388;-76
2023/08/22 02:56:39;;;;;;;6.40;4.90;;;21.80;99.90;;;;;;950769;147;27431;-76
2023/08/22 02:59:06;;;;;;;5.22;4.83;;;21.80;99.90;;;;;;950945;147;27402;-76
2023/08/22 03:01:32;;;;;;;5.30;4.90;;;21.70;99.90;;;;;;950585;147;27354;-76
2023/08/22 03:03:59;;;;;;;5.03;4.35;;;21.70;99.90;;;;;;950846;147;27440;-76
2023/08/22 03:06:25;;;;;;;5.92;5.28;;;21.70;99.90;;;;;;951080;147;27320;-76
2023/08/22 03:08:52;;;;;;;5.47;5.03;;;21.70;99.90;;;;;;950580;147;27437;-76
2023/08/22 03:11:19;;;;;;;6.12;4.70;;;21.70;99.90;;;;;;950530;147;27254;-76
2023/08/22 03:13:45;;;;;;;5.10;4.80;;;21.60;99.90;;;;;;951200;147;27450;-76
2023/08/22 03:16:12;;;;;;;6.67;4.92;;;21.60;99.90;;;;;;951138;147;27442;-76
2023/08/22 03:18:38;;;;;;;5.08;4.67;;;21.60;99.90;;;;;;950936;147;27367;-76
2023/08/22 03:21:05;;;;;;;7.22;5.25;;;21.60;99.90;;;;;;951541;147;27370;-76
2023/08/22 03:23:31;;;;;;;4.75;4.35;;;21.60;99.90;;;;;;950433;147;27332;-76
2023/08/22 03:26:02;;;;;;;5.33;4.83;;;21.50;99.90;;;;;;951477;147;27340;-76
2023/08/22 03:28:28;;;;;;;5.80;5.30;;;21.50;99.90;;;;;;950931;147;27433;-76
2023/08/22 03:30:57;;;;;;;5.42;5.03;;;21.50;99.90;;;;;;951090;147;27295;-76
2023/08/22 03:33:23;;;;;;;5.47;4.97;;;21.40;99.90;;;;;;950487;147;27405;-76
2023/08/22 03:35:50;;;;;;;5.50;4.97;;;21.40;99.90;;;;;;958119;147;27390;-76
2023/08/22 03:38:17;;;;;;;5.12;4.62;;;21.40;99.90;;;;;;963919;145;27405;-76
2023/08/22 03:40:43;;;;;;;5.67;5.17;;;21.40;99.90;;;;;;963581;145;27251;-76
2023/08/22 03:43:10;;;;;;;5.33;4.83;;;21.40;99.90;;;;;;964464;146;27267;-76
2023/08/22 03:45:36;;;;;;;6.05;4.97;;;21.40;99.90;;;;;;964244;146;27325;-76
2023/08/22 03:48:04;;;;;;;4.90;4.50;;;21.40;99.90;;;;;;964064;145;27334;-76
2023/08/22 03:50:30;;;;;;;5.67;4.80;;;21.40;99.90;;;;;;963686;146;27294;-76
2023/08/22 03:52:56;;;;;;;5.60;4.60;;;21.40;99.90;;;;;;962904;146;27335;-76
2023/08/22 03:55:23;;;;;;;4.83;4.53;;;21.40;99.90;;;;;;964748;146;27313;-76
2023/08/22 03:57:49;;;;;;;5.53;5.03;;;21.40;99.90;;;;;;964059;145;27342;-76
2023/08/22 04:00:16;;;;;;;6.33;4.78;;;21.50;99.90;;;;;;963713;146;27395;-76
2023/08/22 04:02:42;;;;;;;5.22;4.60;;;21.50;99.90;;;;;;963260;145;27403;-76
2023/08/22 04:05:09;;;;;;;5.15;4.75;;;21.50;99.90;;;;;;963814;145;27892;-76
2023/08/22 04:07:36;;;;;;;5.30;4.80;;;21.50;99.90;;;;;;964336;145;27747;-76
2023/08/22 04:10:02;;;;;;;4.80;4.45;;;21.50;99.90;;;;;;963884;146;27475;-76
2023/08/22 04:12:29;;;;;;;5.58;5.08;;;21.50;99.90;;;;;;963193;146;27267;-76
2023/08/22 04:14:55;;;;;;;4.40;4.00;;;21.60;99.90;;;;;;962744;145;27330;-76
2023/08/22 04:17:22;;;;;;;6.10;4.60;;;21.50;99.90;;;;;;963628;145;27309;-76
2023/08/22 04:19:49;;;;;;;5.60;5.17;;;21.50;99.90;;;;;;964310;145;27350;-76
2023/08/22 04:22:15;;;;;;;5.05;4.65;;;21.50;99.90;;;;;;963121;146;27335;-76
2023/08/22 04:24:42;;;;;;;5.15;4.75;;;21.50;99.90;;;;;;964746;146;27442;-76
2023/08/22 04:27:08;;;;;;;5.22;4.83;;;21.50;99.90;;;;;;964050;145;27311;-76
2023/08/22 04:29:35;;;;;;;4.90;4.50;;;21.50;99.90;;;;;;963656;146;27339;-76
2023/08/22 04:32:03;;;;;;;4.80;4.40;;;21.50;99.90;;;;;;963559;145;27427;-76
2023/08/22 04:34:28;;;;;;;4.75;4.45;;;21.40;99.90;;;;;;964119;146;27407;-76
2023/08/22 04:36:55;;;;;;;5.72;4.80;;;21.40;99.90;;;;;;964008;145;27423;-76
2023/08/22 04:39:21;;;;;;;5.78;4.72;;;21.40;99.90;;;;;;963371;145;27419;-76
2023/08/22 04:41:50;;;;;;;4.40;4.00;;;21.40;99.90;;;;;;964810;145;27346;-74
2023/08/22 04:44:15;;;;;;;4.35;4.05;;;21.40;99.90;;;;;;963843;146;27407;-73
2023/08/22 04:46:41;;;;;;;5.10;4.60;;;21.40;99.90;;;;;;964035;145;27442;-73
2023/08/22 04:49:08;;;;;;;4.53;4.20;;;21.40;99.90;;;;;;964403;146;27322;-75
2023/08/22 04:51:34;;;;;;;4.70;4.35;;;21.50;99.90;;;;;;964642;145;27455;-73
2023/08/22 04:54:01;;;;;;;4.92;4.62;;;21.50;99.90;;;;;;941558;149;28434;-74
2023/08/22 04:56:27;;;;;;;7.62;4.90;;;21.50;99.90;;;;;;964176;146;27261;-73
2023/08/22 04:58:54;;;;;;;4.75;4.30;;;21.60;99.90;;;;;;963291;146;27336;-75
2023/08/22 05:01:21;;;;;;;5.12;4.25;;;21.60;99.90;;;;;;964091;146;27391;-76
2023/08/22 05:03:47;;;;;;;5.10;4.08;;;21.70;99.90;;;;;;961285;145;27316;-73
2023/08/22 05:06:14;;;;;;;4.62;4.22;;;21.80;99.90;;;;;;945803;148;27422;-73
2023/08/22 05:08:40;;;;;;;4.33;4.03;;;22.00;99.90;;;;;;964310;145;27695;-74
2023/08/22 05:11:07;;;;;;;3.90;3.60;;;22.10;99.90;;;;;;963993;146;27371;-75
2023/08/22 05:13:34;;;;;;;3.98;3.67;;;22.40;99.90;;;;;;963519;146;27428;-74
2023/08/22 05:16:00;;;;;;;4.42;4.03;;;22.80;99.90;;;;;;964498;146;28538;-73
2023/08/22 05:18:27;;;;;;;4.22;3.83;;;23.20;99.90;;;;;;964595;146;27781;-73
2023/08/22 05:20:53;;;;;;;4.20;3.80;;;23.60;99.90;;;;;;963962;146;27397;-75
2023/08/22 05:23:20;;;;;;;3.85;3.60;;;24.10;99.90;;;;;;964002;146;27431;-76
2023/08/22 05:25:47;;;;;;;4.17;3.85;;;24.60;99.90;;;;;;964040;145;27339;-74
2023/08/22 05:28:13;;;;;;;4.70;4.30;;;25.20;99.90;;;;;;963706;145;27319;-73
2023/08/22 05:30:40;;;;;;;4.17;3.87;;;25.70;99.90;;;;;;963927;146;27392;-74
2023/08/22 05:33:06;;;;;;;4.47;3.70;;;26.30;99.90;;;;;;964299;145;27315;-75
2023/08/22 05:35:33;;;;;;;4.92;4.12;;;26.90;99.90;;;;;;964460;146;27346;-74
2023/08/22 05:37:59;;;;;;;3.67;3.37;;;27.40;99.90;;;;;;963412;145;27347;-73
2023/08/22 05:40:26;;;;;;;4.12;3.70;;;27.90;99.90;;;;;;964022;146;27341;-76
2023/08/22 05:42:53;;;;;;;4.37;3.83;;;28.30;99.00;;;;;;963348;146;27295;-76
2023/08/22 05:45:19;;;;;;;4.25;3.47;;;28.80;97.40;;;;;;962970;145;27311;-76
2023/08/22 05:47:46;;;;;;;5.20;3.95;;;29.20;95.60;;;;;;964092;145;27362;-74
2023/08/22 05:50:13;;;;;;;3.77;3.47;;;29.60;92.80;;;;;;963694;145;27373;-74
2023/08/22 05:52:39;;;;;;;4.78;4.03;;;29.90;90.40;;;;;;964056;146;27312;-73
2023/08/22 05:55:06;;;;;;;4.92;3.92;;;30.10;86.70;;;;;;963675;145;27300;-75
2023/08/22 05:57:32;;;;;;;4.28;3.87;;;30.20;84.10;;;;;;963685;145;27327;-74
2023/08/22 05:59:59;;;;;;;4.00;3.58;;;30.30;82.50;;;;;;947419;148;27325;-75
2023/08/22 06:02:25;;;;;;;3.80;3.50;;;30.30;81.20;;;;;;963781;145;27299;-74
2023/08/22 06:04:52;;;;;;;4.15;3.85;;;30.40;80.10;;;;;;964044;145;27284;-74
2023/08/22 06:07:19;;;;;;;4.33;3.92;;;30.40;79.90;;;;;;963243;145;27341;-73
2023/08/22 06:09:45;;;;;;;4.22;3.83;;;30.50;79.80;;;;;;964704;146;27383;-73
2023/08/22 06:12:12;;;;;;;3.65;3.35;;;30.50;79.10;;;;;;963400;145;27335;-73
2023/08/22 06:14:38;;;;;;;3.83;3.52;;;30.70;78.50;;;;;;963670;145;27277;-74
2023/08/22 06:17:05;;;;;;;4.75;4.20;;;30.80;78.90;;;;;;963537;145;27444;-76
2023/08/22 06:19:32;;;;;;;4.10;3.70;;;31.10;79.90;;;;;;963897;145;27871;-74
2023/08/22 06:21:58;;;;;;;4.08;3.67;;;31.40;80.70;;;;;;962923;145;28211;-74
2023/08/22 06:24:25;;;;;;;3.92;3.40;;;31.90;80.40;;;;;;963161;145;27331;-74
2023/08/22 06:26:51;;;;;;;4.47;3.98;;;32.40;77.80;;;;;;964289;145;27339;-74
2023/08/22 06:29:18;;;;;;;4.00;3.60;;;32.90;76.40;;;;;;964205;146;27327;-75
2023/08/22 06:31:44;;;;;;;5.33;3.50;;;33.50;74.90;;;;;;964207;146;27458;-74
2023/08/22 06:34:11;;;;;;;4.15;3.67;;;34.00;73.40;;;;;;945261;149;27365;-75
2023/08/22 06:36:38;;;;;;;4.78;3.92;;;34.60;71.80;;;;;;942936;149;26319;-75
2023/08/22 06:39:05;;;;;;;3.70;3.33;;;35.20;69.80;;;;;;950865;147;26222;-77
2023/08/22 06:41:31;;;;;;;5.33;3.98;;;35.80;68.30;;;;;;950530;147;26235;-74
2023/08/22 06:43:57;;;;;;;4.33;4.03;;;36.40;67.50;;;;;;950362;147;26248;-74
2023/08/22 06:46:27;;;;;;;4.47;3.98;;;37.10;64.90;;;;;;951811;147;26226;-74
2023/08/22 06:48:51;;;;;;;3.90;3.60;;;37.60;63.30;;;;;;950408;147;26306;-76
2023/08/22 06:51:17;;;;;;;3.27;3.08;;;38.20;61.90;;;;;;950918;147;26256;-75
2023/08/22 06:53:44;;;;;;;3.75;3.12;;;38.70;60.30;;;;;;950952;147;28628;-74
2023/08/22 06:56:10;;;;;;;3.80;3.20;;;39.30;59.00;;;;;;950626;147;26222;-74
2023/08/22 06:58:37;;;;;;;3.30;3.00;;;39.80;57.90;;;;;;951148;147;26182;-75
2023/08/22 07:01:04;;;;;;;4.10;3.33;;;40.30;56.70;;;;;;951351;147;26338;-76
2023/08/22 07:03:30;;;;;;;3.27;3.08;;;40.80;55.80;;;;;;949833;147;26265;-76
2023/08/22 07:05:57;;;;;;;4.00;3.10;;;41.30;54.80;;;;;;949279;147;26298;-76
2023/08/22 07:08:23;;;;;;;3.72;3.10;;;41.70;53.80;;;;;;950873;147;26734;-76
2023/08/22 07:10:50;;;;;;;5.12;3.52;;;42.10;53.00;;;;;;950804;147;26342;-77
2023/08/22 07:13:18;;;;;;;4.05;2.52;;;42.50;52.00;;;;;;949995;147;26243;-76
2023/08/22 07:15:43;;;;;;;3.42;2.75;;;42.90;51.20;;;;;;950902;147;26214;-76
2023/08/22 07:18:10;;;;;;;4.97;2.62;;;43.30;50.40;;;;;;950899;147;26309;-76
2023/08/22 07:20:36;;;;;;;3.83;2.70;;;43.60;49.40;;;;;;951048;147;26230;-77
2023/08/22 07:23:03;;;;;;;3.17;2.60;;;43.80;48.40;;;;;;951317;147;26249;-76
2023/08/22 07:25:29;;;;;;;3.58;2.80;;;43.90;47.80;;;;;;951295;147;26269;-76
2023/08/22 07:27:56;;;;;;;3.25;2.70;;;44.00;47.20;;;;;;950969;147;26297;-76
2023/08/22 07:30:23;;;;;;;4.90;2.70;;;44.00;46.60;;;;;;950810;147;26221;-76
2023/08/22 07:32:49;;;;;;;6.17;2.33;;;44.00;46.00;;;;;;950189;147;26839;-77
2023/08/22 07:35:16;;;;;;;3.40;2.50;;;43.80;45.50;;;;;;950554;147;26256;-76
2023/08/22 07:37:43;;;;;;;2.50;2.30;;;43.70;45.10;;;;;;950641;147;26261;-76
2023/08/22 07:40:09;;;;;;;2.67;2.40;;;43.50;44.70;;;;;;933797;150;26655;-76
2023/08/22 07:42:36;;;;;;;3.15;2.42;;;43.20;44.40;;;;;;933882;150;26172;-76
2023/08/22 07:45:03;;;;;;;4.47;2.50;;;42.90;44.30;;;;;;950862;147;26340;-76
2023/08/22 07:47:29;;;;;;;2.58;2.30;;;42.50;44.10;;;;;;950231;147;26339;-76
2023/08/22 07:49:55;;;;;;;4.62;2.67;;;42.20;44.20;;;;;;950394;147;26262;-76
2023/08/22 07:52:22;;;;;;;3.10;2.85;;;41.80;44.50;;;;;;951367;147;26197;-76
2023/08/22 07:54:48;;;;;;;4.67;2.47;;;41.70;45.20;;;;;;951571;147;26210;-76
2023/08/22 07:57:15;;;;;;;4.35;2.12;;;41.60;45.80;;;;;;950154;147;26343;-76
2023/08/22 07:59:42;;;;;;;2.72;2.30;;;41.80;46.20;;;;;;934299;150;26306;-76
2023/08/22 08:02:08;;;;;;;2.33;2.10;;;42.00;45.80;;;;;;926999;150;26246;-77
2023/08/22 08:04:35;;;;;;;3.70;2.50;;;42.30;45.50;;;;;;950098;147;26210;-76
2023/08/22 08:07:01;;;;;;;4.47;2.20;;;42.50;44.90;;;;;;927011;150;26227;-76
2023/08/22 08:09:28;;;;;;;3.62;2.37;;;42.90;44.90;;;;;;935964;149;26423;-76
2023/08/22 08:11:55;;;;;;;2.90;2.22;;;43.10;44.30;;;;;;936601;149;27857;-74
2023/08/22 08:14:21;;;;;;;4.00;2.30;;;43.50;43.90;;;;;;934066;150;26272;-74
2023/08/22 08:16:48;;;;;;;2.83;2.20;;;43.80;43.40;;;;;;950114;147;26167;-77
2023/08/22 08:19:14;;;;;;;3.15;1.95;;;44.10;43.00;;;;;;927887;150;26273;-75
2023/08/22 08:21:41;;;;;;;4.20;2.60;;;44.40;42.70;;;;;;950035;147;26217;-75
2023/08/22 08:24:08;;;;;;;2.10;1.90;;;44.80;42.30;;;;;;951156;147;26254;-75
2023/08/22 08:26:34;;;;;;;3.65;1.98;;;45.10;41.90;;;;;;950579;147;26318;-76
2023/08/22 08:29:01;;;;;;;2.50;2.20;;;45.40;41.00;;;;;;949900;147;26415;-75
2023/08/22 08:31:27;;;;;;;2.92;2.30;;;45.60;40.30;;;;;;926218;150;26681;-75
2023/08/22 08:33:54;;;;;;;2.62;1.98;;;45.80;39.90;;;;;;949054;147;26229;-74
2023/08/22 08:36:20;;;;;;;3.33;2.58;;;45.90;39.60;;;;;;949930;147;26305;-74
2023/08/22 08:38:47;;;;;;;3.95;2.20;;;46.10;39.60;;;;;;950840;147;26281;-76
2023/08/22 08:41:14;;;;;;;4.55;2.20;;;46.30;39.40;;;;;;950485;147;26253;-74
2023/08/22 08:43:40;;;;;;;2.33;2.02;;;46.60;39.20;;;;;;949921;147;26553;-75
2023/08/22 08:46:07;;;;;;;3.60;2.20;;;46.80;38.80;;;;;;949750;147;26236;-75
2023/08/22 08:48:33;;;;;;;2.50;1.92;;;47.10;38.60;;;;;;950374;147;26296;-76
2023/08/22 08:51:00;;;;;;;2.30;2.10;;;47.40;38.30;;;;;;927159;150;26269;-74
2023/08/22 08:53:27;;;;;;;3.45;1.90;;;47.70;38.00;;;;;;950312;147;27103;-74
2023/08/22 08:55:53;;;;;;;2.87;2.05;;;48.00;37.70;;;;;;951201;147;26318;-75
2023/08/22 08:58:20;;;;;;;3.58;2.30;;;48.30;37.30;;;;;;951070;147;26275;-76
2023/08/22 09:00:46;;;;;;;2.22;2.00;;;48.60;36.50;;;;;;951341;147;26308;-77
2023/08/22 09:03:13;;;;;;;3.55;2.10;;;48.80;36.30;;;;;;951309;147;26260;-74
2023/08/22 09:05:40;;;;;;;2.85;1.85;;;49.00;36.00;;;;;;951726;147;26182;-74
2023/08/22 09:08:15;;;;;;;3.30;1.90;;;49.20;35.60;;;;;;951514;147;26211;-74
2023/08/22 09:10:42;;;;;;;2.05;1.90;;;49.30;35.30;;;;;;927292;150;26202;-77
2023/08/22 09:13:08;;;;;;;3.05;1.80;;;49.50;35.30;;;;;;927877;150;26251;-74
2023/08/22 09:15:35;;;;;;;2.58;1.98;;;49.60;34.80;;;;;;926116;150;26243;-75
2023/08/22 09:18:02;;;;;;;2.27;2.08;;;49.80;34.90;;;;;;950631;147;26306;-75
2023/08/22 09:20:28;;;;;;;3.00;1.67;;;50.00;34.20;;;;;;951398;147;26187;-75
2023/08/22 09:22:55;;;;;;;3.20;2.00;;;50.00;33.60;;;;;;951173;147;26261;-77
2023/08/22 09:25:21;;;;;;;3.70;2.50;;;50.00;33.30;;;;;;951178;147;26269;-77
2023/08/22 09:27:51;;;;;;;3.17;1.98;;;49.90;33.00;;;;;;950586;147;26333;-77
2023/08/22 09:30:20;;;;;;;2.10;1.77;;;49.70;32.90;;;;;;950970;147;26221;-77
2023/08/22 09:32:44;;;;;;;2.65;1.80;;;49.50;32.60;;;;;;951252;147;26194;-77
2023/08/22 09:35:11;;;;;;;1.80;1.70;;;49.30;32.70;;;;;;948217;147;26354;-77
2023/08/22 09:37:37;;;;;;;3.22;2.02;;;49.20;33.00;;;;;;927338;150;26349;-77
2023/08/22 09:40:04;;;;;;;2.33;1.95;;;49.00;33.00;;;;;;948311;147;26242;-77
2023/08/22 09:42:30;;;;;;;4.15;2.37;;;48.90;32.90;;;;;;942122;149;26269;-77
2023/08/22 09:44:57;;;;;;;3.37;2.08;;;48.90;32.80;;;;;;942610;149;26917;-77
2023/08/22 09:47:26;;;;;;;2.08;1.95;;;48.80;32.70;;;;;;942423;149;26269;-77
2023/08/22 09:49:53;;;;;;;4.30;2.25;;;48.60;32.70;;;;;;942264;149;26216;-77
2023/08/22 09:52:19;;;;;;;2.62;2.25;;;48.30;32.30;;;;;;942513;149;26237;-78
2023/08/22 09:54:46;;;;;;;2.10;1.70;;;48.00;32.00;;;;;;943295;149;26285;-77
2023/08/22 09:57:12;;;;;;;2.50;2.10;;;47.60;32.30;;;;;;942200;149;26425;-77
2023/08/22 09:59:39;;;;;;;2.40;2.20;;;47.00;32.60;;;;;;942600;149;26265;-77
2023/08/22 10:02:06;;;;;;;2.15;2.00;;;46.50;32.60;;;;;;941643;149;26290;-77
2023/08/22 10:04:32;;;;;;;3.83;1.95;;;45.90;32.70;;;;;;942783;149;26224;-77
2023/08/22 10:06:59;;;;;;;2.55;2.30;;;45.30;33.20;;;;;;943530;149;26298;-77
2023/08/22 10:09:26;;;;;;;2.77;2.30;;;44.70;33.60;;;;;;942526;149;26296;-77
2023/08/22 10:11:58;;;;;;;3.50;2.17;;;44.20;34.00;;;;;;933955;150;26932;-77
2023/08/22 10:14:30;;;;;;;2.15;1.95;;;43.70;34.40;;;;;;951115;147;26311;-77
2023/08/22 10:16:57;;;;;;;3.08;2.30;;;43.30;35.00;;;;;;947775;147;26358;-77
2023/08/22 10:19:26;;;;;;;4.00;2.42;;;43.00;34.90;;;;;;950464;147;26298;-77
2023/08/22 10:21:53;;;;;;;4.35;2.50;;;42.60;35.00;;;;;;934055;149;26416;-77
2023/08/22 10:24:31;;;;;;;3.12;2.17;;;42.30;35.40;;;;;;940406;150;26221;-77
2023/08/22 10:27:02;;;;;;;3.27;2.37;;;41.90;35.50;;;;;;927689;150;26308;-77
2023/08/22 10:29:27;;;;;;;3.80;2.30;;;41.60;36.20;;;;;;949824;147;27006;-77
2023/08/22 10:32:00;;;;;;;3.12;2.42;;;41.20;35.80;;;;;;948871;147;26225;-76
2023/08/22 10:34:26;;;;;;;2.67;2.47;;;40.90;36.70;;;;;;941808;147;26269;-75
2023/08/22 10:37:03;;;;;;;3.47;2.30;;;40.50;36.60;;;;;;950152;147;26342;-76
2023/08/22 10:39:37;;;;;;;2.52;2.33;;;40.20;36.90;;;;;;952656;147;27132;-76
2023/08/22 10:42:04;;;;;;;3.02;2.52;;;39.80;37.10;;;;;;962308;145;26324;-76
2023/08/22 10:44:31;;;;;;;4.92;2.58;;;39.30;37.20;;;;;;962950;145;26366;-76
2023/08/22 10:47:00;;;;;;;3.92;2.42;;;39.00;37.60;;;;;;962468;145;26348;-76
2023/08/22 10:49:32;;;;;;;6.17;2.60;;;38.60;38.10;;;;;;962839;145;26216;-76
2023/08/22 10:52:08;;;;;;;2.77;2.47;;;38.30;38.70;;;;;;964080;146;26160;-76
2023/08/22 10:55:02;;;;;;;3.08;2.08;;;38.00;38.90;;;;;;962899;145;26348;-75
2023/08/22 10:57:25;;;;;;;3.02;2.08;;;37.70;39.10;;;;;;938530;149;26282;-76
2023/08/22 11:00:21;;;;;;;3.52;2.58;;;37.40;39.40;;;;;;945859;148;27394;-75
2023/08/22 11:02:30;;;;;;;3.80;2.15;;;37.10;39.80;;;;;;941027;148;27455;-76
2023/08/22 11:04:56;;;;;;;2.45;2.22;;;36.90;40.00;;;;;;945916;149;27380;-76
2023/08/22 11:07:23;;;;;;;2.42;2.22;;;36.80;40.30;;;;;;962712;145;27386;-76
2023/08/22 11:09:49;;;;;;;3.05;2.12;;;36.60;40.50;;;;;;964172;145;27354;-76
2023/08/22 11:12:22;;;;;;;2.47;2.25;;;36.50;40.90;;;;;;946525;149;27421;-76
2023/08/22 11:14:48;;;;;;;4.35;2.30;;;36.30;41.00;;;;;;962751;146;27751;-75
2023/08/22 11:17:15;;;;;;;3.55;2.30;;;36.20;41.20;;;;;;944871;149;27339;-76
2023/08/22 11:19:44;;;;;;;3.55;2.30;;;36.00;41.40;;;;;;962255;148;27259;-76
2023/08/22 11:22:10;;;;;;;4.87;2.33;;;35.90;41.60;;;;;;944458;148;26352;-75
2023/08/22 11:24:37;;;;;;;3.05;2.45;;;35.80;41.60;;;;;;946808;148;27436;-76
2023/08/22 11:27:06;;;;;;;2.90;2.00;;;35.70;41.60;;;;;;963366;146;27322;-76
2023/08/22 11:29:39;;;;;;;3.95;2.25;;;35.60;41.60;;;;;;963710;146;27440;-76
2023/08/22 11:32:05;;;;;;;2.75;2.15;;;35.40;41.90;;;;;;963480;145;27484;-76
2023/08/22 11:34:32;;;;;;;3.12;2.33;;;35.30;41.90;;;;;;960334;145;27342;-76
2023/08/22 11:36:59;;;;;;;4.25;2.40;;;35.20;41.90;;;;;;963319;145;27316;-75
2023/08/22 11:39:25;;;;;;;3.15;2.20;;;35.10;42.40;;;;;;963723;145;27417;-76
2023/08/22 11:41:52;;;;;;;3.33;2.33;;;35.00;42.40;;;;;;953946;146;27355;-76
2023/08/22 11:44:20;;;;;;;4.65;2.55;;;35.00;42.70;;;;;;950959;147;27470;-77
2023/08/22 11:46:45;;;;;;;2.95;2.65;;;34.90;42.80;;;;;;951173;147;27322;-77
2023/08/22 11:49:12;;;;;;;2.95;2.52;;;34.90;42.70;;;;;;950207;147;27286;-77
2023/08/22 11:51:38;;;;;;;2.45;2.25;;;34.90;42.90;;;;;;951277;147;27314;-77
2023/08/22 11:54:05;;;;;;;2.67;2.47;;;34.90;43.60;;;;;;950777;147;27850;-77
2023/08/22 11:56:31;;;;;;;3.27;2.35;;;34.90;43.70;;;;;;951299;147;27346;-77
2023/08/22 11:58:58;;;;;;;2.60;2.40;;;34.90;43.60;;;;;;950308;147;27279;-77
2023/08/22 12:01:25;;;;;;;3.20;2.83;;;34.90;43.50;;;;;;950313;147;27330;-77
2023/08/22 12:03:54;;;;;;;3.55;2.70;;;35.00;43.60;;;;;;950572;147;27383;-77
2023/08/22 12:06:20;;;;;;;2.65;2.45;;;35.00;43.40;;;;;;950316;147;27341;-77
2023/08/22 12:09:00;;;;;;;2.62;2.42;;;35.00;43.20;;;;;;950552;147;27449;-77
2023/08/22 12:11:26;;;;;;;3.40;2.65;;;35.00;43.40;;;;;;951450;147;27345;-77
2023/08/22 12:13:52;;;;;;;3.45;2.22;;;34.90;43.40;;;;;;950991;147;27275;-77
2023/08/22 12:16:19;;;;;;;3.55;2.92;;;34.90;43.60;;;;;;950675;147;27426;-77
2023/08/22 12:18:45;;;;;;;6.03;2.58;;;34.80;43.80;;;;;;950793;147;27295;-77
2023/08/22 12:21:14;;;;;;;2.87;2.67;;;34.70;44.00;;;;;;951298;147;27327;-77
2023/08/22 12:23:39;;;;;;;3.47;2.83;;;34.70;44.10;;;;;;951174;147;27409;-77
2023/08/22 12:26:05;;;;;;;3.12;2.92;;;34.70;44.20;;;;;;950972;147;27483;-77
2023/08/22 12:28:32;;;;;;;3.05;2.75;;;34.70;44.10;;;;;;950823;147;28393;-77
2023/08/22 12:30:58;;;;;;;3.62;2.65;;;34.70;44.10;;;;;;950965;147;27379;-77
2023/08/22 12:33:25;;;;;;;3.15;2.80;;;34.70;44.20;;;;;;950729;147;27391;-76
2023/08/22 12:35:51;;;;;;;2.95;2.65;;;34.60;44.20;;;;;;951404;147;27332;-77
2023/08/22 12:38:18;;;;;;;2.95;2.58;;;34.70;44.10;;;;;;951116;147;27377;-77
2023/08/22 12:40:45;;;;;;;3.02;2.72;;;34.70;44.00;;;;;;950752;147;27629;-77
2023/08/22 12:43:11;;;;;;;3.05;2.47;;;34.60;44.10;;;;;;956149;146;27440;-77
2023/08/22 12:45:38;;;;;;;2.90;2.60;;;34.60;44.60;;;;;;964175;147;27338;-76
2023/08/22 12:48:05;;;;;;;3.12;2.47;;;34.60;44.00;;;;;;963503;145;27324;-76